Terminal Aerodrome Forecast
Issued by NWS

Home | Current Version | Previous Version | Text Only | Print | Product List | Glossary On
Versions: 1 2 3 4 5 6 7 8 9 10 11 12 13 14 15 16 17 18 19 20 21 22 23 24 25 26 27 28
135
FTUS41 KBTV 022330
TAFMSS
TAF
KMSS 022330Z 0300/0324 26011G20KT P6SM VCSH OVC035
     FM030500 28012KT P6SM OVC020
     FM031500 30011KT P6SM OVC015
     FM031900 29010G16KT P6SM OVC025
     FM032100 28010G16KT P6SM OVC040=

USA.gov is the U.S. government's official web portal to all federal, state and local government web resources and services.